Choppington, United Kingdom
Current Conditions -  °F | °C
As of 11:50 AM on Wednesday 28 Jan 2015 (Local Time) from EGNT Reporting Station
Scattered Clouds Scattered Clouds  
Wind Chill: -3°   Ceiling: Unl
Heat Index:   Visibility: 6mi
Dew Point:   Wind: 25mph
Humidity: 87%   Direction: 270°W
Pressure: 29.21"   Gusts: NA
Location:  55.16°N, 1.6°W
Report Text: EGNT 281150Z 27022KT 9999 FEW005 SCT023CB 03/01 Q0989 RERA
Loading
Personal Weather Stations






























Interactive Weather Map New forecast layout! Learn more

10-Day Weather Forecast

Advertisements
Track Severe Weather on mobile